Time;durP1;ratioP1;P1;durP2;ratioP2;P2;SDS_P1;SDS_P2;PMS_P1;PMS_P2;Temp;Humidity;BMP_temperature;BMP_pressure;BME280_temperature;BME280_humidity;BME280_pressure;Samples;Min_cycle;Max_cycle;Signal;HPM_P1;HPM_P2
2023/06/20 00:00:12;;;;;;;6.38;3.75;;;;;;;21.58;69.34;98232.78;5032151;28;20189;-57
2023/06/20 00:02:38;;;;;;;7.07;4.30;;;;;;;21.21;70.58;98197.72;5061621;28;20185;-57
2023/06/20 00:05:04;;;;;;;5.03;3.72;;;;;;;21.10;71.49;98200.75;5088459;28;20626;-57
2023/06/20 00:07:31;;;;;;;5.57;4.15;;;;;;;21.33;70.55;98214.72;5094670;28;20656;-57
2023/06/20 00:09:57;;;;;;;4.40;4.00;;;;;;;21.33;70.60;98201.56;5094534;28;20175;-57
2023/06/20 00:12:22;;;;;;;6.07;4.45;;;;;;;21.48;70.64;98218.19;5094529;28;20171;-57
2023/06/20 00:14:48;;;;;;;4.38;3.30;;;;;;;21.48;71.05;98218.19;5094443;28;20195;-58
2023/06/20 00:17:13;;;;;;;3.90;3.50;;;;;;;21.32;70.71;98199.94;5093848;28;20180;-58
2023/06/20 00:19:40;;;;;;;4.50;3.85;;;;;;;21.42;70.63;98209.22;5094366;28;20172;-57
2023/06/20 00:22:05;;;;;;;4.95;4.22;;;;;;;21.22;71.46;98207.25;5094584;28;20180;-57
2023/06/20 00:24:32;;;;;;;4.60;3.92;;;;;;;21.14;71.70;98210.75;5094350;28;20198;-57
2023/06/20 00:27:01;;;;;;;4.72;4.15;;;;;;;21.07;71.94;98199.28;5094248;28;20583;-57
2023/06/20 00:29:26;;;;;;;4.10;3.80;;;;;;;21.03;72.39;98205.88;5094254;28;20172;-57
2023/06/20 00:31:52;;;;;;;4.45;4.03;;;;;;;21.04;72.17;98201.47;5094187;28;20672;-56
2023/06/20 00:34:18;;;;;;;4.72;4.32;;;;;;;20.88;72.19;98180.50;5094022;28;20179;-56
2023/06/20 00:36:43;;;;;;;4.40;3.80;;;;;;;20.94;73.04;98209.59;5093755;28;20665;-56
2023/06/20 00:39:10;;;;;;;4.05;3.75;;;;;;;20.87;73.28;98205.16;5093952;28;20634;-56
2023/06/20 00:41:35;;;;;;;4.40;4.10;;;;;;;20.90;73.30;98200.41;5093928;28;20191;-56
2023/06/20 00:44:03;;;;;;;4.40;4.00;;;;;;;20.93;73.46;98205.28;5093496;28;20187;-56
2023/06/20 00:46:31;;;;;;;6.35;3.90;;;;;;;20.80;73.38;98172.66;5093791;28;20180;-56
2023/06/20 00:48:58;;;;;;;4.47;4.03;;;;;;;21.08;73.02;98197.47;5093475;28;20176;-57
2023/06/20 00:51:28;;;;;;;7.25;4.35;;;;;;;21.08;73.11;98187.78;5093483;28;20548;-57
2023/06/20 00:53:54;;;;;;;4.53;4.13;;;;;;;21.15;73.60;98187.91;5093674;28;20175;-57
2023/06/20 00:56:20;;;;;;;5.70;4.32;;;;;;;20.96;76.00;98177.81;5050998;28;20189;-57
2023/06/20 00:58:45;;;;;;;4.25;3.85;;;;;;;20.97;73.44;98163.69;5051052;28;20185;-57
2023/06/20 01:01:11;;;;;;;6.43;3.78;;;;;;;21.14;73.26;98183.59;5050926;28;20189;-57
2023/06/20 01:03:37;;;;;;;5.05;4.05;;;;;;;21.14;72.44;98183.59;5050797;28;20192;-56
2023/06/20 01:06:11;;;;;;;6.60;3.97;;;;;;;21.27;71.88;98199.63;5050892;28;20193;-57
2023/06/20 01:08:41;;;;;;;5.32;3.78;;;;;;;21.15;71.86;98172.09;5050859;28;20626;-57
2023/06/20 01:11:24;;;;;;;5.13;4.60;;;;;;;21.32;72.25;98195.47;5050791;28;20199;-57
2023/06/20 01:14:25;;;;;;;4.70;4.15;;;;;;;21.28;75.52;98199.44;5050739;28;20260;-57
2023/06/20 01:16:50;;;;;;;5.45;4.32;;;;;;;21.27;75.58;98197.00;4971931;28;20198;-57
2023/06/20 01:19:18;;;;;;;5.80;4.00;;;;;;;21.10;76.78;98200.75;4971952;28;20187;-57
2023/06/20 01:21:50;;;;;;;4.10;3.80;;;;;;;21.00;74.61;98205.44;4971917;28;20282;-57
2023/06/20 01:24:29;;;;;;;4.47;4.07;;;;;;;21.10;73.86;98206.81;4971854;28;20284;-57
2023/06/20 01:27:01;;;;;;;4.43;4.10;;;;;;;21.13;72.20;98201.22;4984967;28;20199;-57
2023/06/20 01:29:32;;;;;;;5.25;4.00;;;;;;;21.02;73.10;98212.16;5009974;28;20206;-57
2023/06/20 01:32:01;;;;;;;4.68;4.20;;;;;;;21.05;72.72;98205.72;5010692;28;20277;-57
2023/06/20 01:34:29;;;;;;;6.95;4.07;;;;;;;21.05;72.95;98197.84;5010647;28;20190;-57
2023/06/20 01:36:59;;;;;;;4.47;3.80;;;;;;;20.87;73.10;98169.13;5010940;28;20191;-57
2023/06/20 01:39:42;;;;;;;7.97;4.15;;;;;;;20.95;73.42;98184.91;5010666;28;20179;-57
2023/06/20 01:42:08;;;;;;;4.75;4.10;;;;;;;21.00;72.77;98182.56;5010692;28;20304;-57
2023/06/20 01:44:36;;;;;;;4.53;4.20;;;;;;;21.10;72.72;98195.50;5010423;28;20218;-57
2023/06/20 01:47:04;;;;;;;4.70;4.10;;;;;;;20.88;73.42;98164.69;5010502;28;20194;-57
2023/06/20 01:49:30;;;;;;;4.20;3.80;;;;;;;20.98;73.19;98171.38;5010507;28;20174;-57
2023/06/20 01:51:57;;;;;;;11.75;4.50;;;;;;;20.82;73.92;98175.94;5010741;28;20178;-57
2023/06/20 01:54:25;;;;;;;3.83;3.53;;;;;;;20.80;74.25;98188.44;5075262;28;20190;-57
2023/06/20 01:56:52;;;;;;;5.53;4.10;;;;;;;20.73;74.94;98176.97;5092514;28;20233;-57
2023/06/20 01:59:19;;;;;;;3.88;3.58;;;;;;;20.58;75.32;98178.72;5092751;28;20176;-57
2023/06/20 02:01:48;;;;;;;4.32;3.95;;;;;;;20.46;76.06;98186.16;5092531;28;20198;-57
2023/06/20 02:04:16;;;;;;;4.40;4.00;;;;;;;20.38;76.54;98188.00;5092412;28;20191;-57
2023/06/20 02:06:43;;;;;;;4.53;4.13;;;;;;;20.20;77.50;98190.03;5092313;28;20187;-56
2023/06/20 02:09:10;;;;;;;4.30;3.92;;;;;;;20.09;78.33;98188.63;5092453;28;20649;-56
2023/06/20 02:11:36;;;;;;;4.88;4.40;;;;;;;19.94;78.54;98168.44;5092053;28;20267;-56
2023/06/20 02:14:02;;;;;;;6.22;4.07;;;;;;;20.07;78.42;98187.97;5092463;28;20203;-56
2023/06/20 02:16:30;;;;;;;4.85;4.18;;;;;;;19.97;79.04;98197.00;5092058;28;20605;-56
2023/06/20 02:18:55;;;;;;;4.40;4.05;;;;;;;19.97;79.19;98186.47;5092285;28;20549;-56
2023/06/20 02:21:26;;;;;;;4.50;4.10;;;;;;;19.95;79.07;98180.59;5092257;28;20172;-56
2023/06/20 02:23:53;;;;;;;5.25;4.20;;;;;;;19.96;79.27;98180.44;5091977;28;20191;-56
2023/06/20 02:26:24;;;;;;;4.50;4.10;;;;;;;20.00;79.27;98201.91;5092183;28;20328;-56
2023/06/20 02:28:54;;;;;;;4.55;4.15;;;;;;;19.88;78.51;98187.50;5091767;28;20171;-59
2023/06/20 02:31:24;;;;;;;4.80;4.40;;;;;;;19.85;79.03;98185.19;5092106;28;20187;-56
2023/06/20 02:33:53;;;;;;;6.10;4.10;;;;;;;19.88;78.65;98195.38;5029510;28;20193;-56
2023/06/20 02:36:25;;;;;;;4.82;3.90;;;;;;;19.80;78.90;98204.09;4990214;28;20195;-56
2023/06/20 02:38:51;;;;;;;4.63;4.18;;;;;;;19.68;78.48;98178.34;4951460;29;20700;-57
2023/06/20 02:41:17;;;;;;;4.07;3.75;;;;;;;19.76;78.59;98202.78;4953653;28;20732;-57
2023/06/20 02:43:42;;;;;;;5.20;4.40;;;;;;;19.74;79.47;98203.94;4955408;29;20208;-57
2023/06/20 02:46:15;;;;;;;4.63;4.22;;;;;;;19.71;79.41;98204.28;4955429;29;20192;-57
2023/06/20 02:48:55;;;;;;;4.38;4.07;;;;;;;19.56;80.41;98209.38;4955625;29;20207;-57
2023/06/20 02:51:24;;;;;;;4.85;4.18;;;;;;;19.56;80.83;98204.13;4955371;29;20656;-57
2023/06/20 02:53:58;;;;;;;8.02;4.63;;;;;;;19.56;80.63;98213.81;4955241;29;20192;-57
2023/06/20 02:56:25;;;;;;;4.68;4.28;;;;;;;19.52;81.07;98215.13;4955164;29;20205;-58
2023/06/20 02:58:52;;;;;;;5.35;4.28;;;;;;;19.44;81.55;98212.50;4955089;28;20193;-57
2023/06/20 03:01:24;;;;;;;5.93;4.65;;;;;;;19.36;81.08;98194.16;4955029;29;20200;-60
2023/06/20 03:03:52;;;;;;;4.80;4.40;;;;;;;19.30;80.79;98200.06;4958608;28;20216;-57
2023/06/20 03:06:29;;;;;;;5.03;3.97;;;;;;;19.47;79.56;98225.31;4997862;28;20182;-58
2023/06/20 03:08:58;;;;;;;4.18;3.78;;;;;;;19.37;79.65;98206.28;5040630;28;20655;-56
2023/06/20 03:11:23;;;;;;;4.93;4.28;;;;;;;19.51;79.69;98227.44;5095512;28;20179;-56
2023/06/20 03:13:50;;;;;;;5.82;4.35;;;;;;;19.56;79.63;98230.38;5095235;28;20182;-56
2023/06/20 03:16:15;;;;;;;4.68;4.18;;;;;;;19.41;80.09;98202.34;5095211;28;20643;-57
2023/06/20 03:18:41;;;;;;;4.82;4.30;;;;;;;19.61;80.57;98224.63;5095491;28;20172;-57
2023/06/20 03:21:06;;;;;;;7.53;4.60;;;;;;;19.63;80.80;98239.22;5095419;28;20179;-57
2023/06/20 03:23:32;;;;;;;6.40;4.13;;;;;;;19.71;80.66;98236.59;5095357;28;20248;-57
2023/06/20 03:25:58;;;;;;;5.78;4.07;;;;;;;19.78;80.83;98229.72;5095108;28;20183;-57
2023/06/20 03:28:24;;;;;;;4.95;4.53;;;;;;;19.66;80.59;98203.97;5095394;28;20648;-57
2023/06/20 03:30:53;;;;;;;5.88;4.30;;;;;;;19.71;80.80;98214.78;5095274;28;20268;-56
2023/06/20 03:33:18;;;;;;;4.25;3.85;;;;;;;19.76;81.07;98223.00;5095262;28;20176;-57
2023/06/20 03:35:43;;;;;;;5.05;4.55;;;;;;;19.88;80.58;98237.41;5094894;28;20526;-57
2023/06/20 03:38:09;;;;;;;4.65;4.35;;;;;;;19.83;80.99;98255.47;5095126;28;20176;-57
2023/06/20 03:40:34;;;;;;;4.70;4.15;;;;;;;19.72;80.30;98227.75;5052375;28;20285;-57
2023/06/20 03:43:00;;;;;;;5.18;4.68;;;;;;;19.60;81.13;98230.88;5052343;28;20200;-56
2023/06/20 03:45:25;;;;;;;5.00;4.50;;;;;;;19.62;81.10;98242.00;5052277;28;21057;-57
2023/06/20 03:47:51;;;;;;;6.45;4.15;;;;;;;19.65;81.41;98236.44;5052324;28;20218;-57
2023/06/20 03:50:17;;;;;;;4.78;4.38;;;;;;;19.78;81.69;98242.84;5052273;28;20196;-57
2023/06/20 03:52:42;;;;;;;5.07;4.57;;;;;;;19.84;81.14;98230.84;5051559;28;20181;-57
2023/06/20 03:55:08;;;;;;;5.18;4.43;;;;;;;20.01;79.92;98243.78;5052188;28;20280;-57
2023/06/20 03:57:34;;;;;;;5.13;4.63;;;;;;;20.13;79.78;98236.38;5032100;28;20280;-56
2023/06/20 03:59:59;;;;;;;6.80;4.40;;;;;;;20.22;79.46;98251.16;5032158;28;20194;-57
2023/06/20 04:02:25;;;;;;;6.03;4.70;;;;;;;20.28;79.45;98247.84;5032076;28;20194;-57
2023/06/20 04:04:50;;;;;;;5.55;4.78;;;;;;;20.38;79.54;98248.44;5032021;28;20301;-57
2023/06/20 04:07:19;;;;;;;4.30;4.00;;;;;;;20.31;79.09;98218.59;5031985;28;20194;-57
2023/06/20 04:09:51;;;;;;;3.95;3.63;;;;;;;20.43;78.69;98231.19;5032309;28;20182;-57
2023/06/20 04:12:16;;;;;;;4.82;4.43;;;;;;;20.48;78.77;98251.69;5031866;28;20645;-57
2023/06/20 04:14:42;;;;;;;4.50;4.10;;;;;;;20.41;79.14;98237.59;5031938;28;20182;-57
2023/06/20 04:17:07;;;;;;;5.22;4.28;;;;;;;20.49;79.48;98248.06;5031921;28;20709;-57
2023/06/20 04:19:33;;;;;;;5.15;4.15;;;;;;;20.61;78.98;98244.91;5011920;28;20727;-57
2023/06/20 04:21:59;;;;;;;6.10;4.00;;;;;;;20.61;79.79;98246.69;4972763;28;20188;-57
2023/06/20 04:24:25;;;;;;;4.40;4.10;;;;;;;20.57;79.11;98248.84;4972763;28;20216;-57
2023/06/20 04:26:51;;;;;;;4.55;4.15;;;;;;;20.57;79.10;98245.44;4972881;28;20279;-57
2023/06/20 04:29:16;;;;;;;4.28;3.97;;;;;;;20.55;79.45;98247.38;5004157;28;20201;-57
2023/06/20 04:31:41;;;;;;;6.55;4.55;;;;;;;20.44;79.02;98230.19;5011673;28;20230;-57
2023/06/20 04:34:07;;;;;;;4.18;3.80;;;;;;;20.60;79.93;98260.84;5011794;28;20649;-57
2023/06/20 04:36:34;;;;;;;4.82;4.43;;;;;;;20.59;79.63;98251.31;5011670;28;20201;-57
2023/06/20 04:38:59;;;;;;;4.70;4.35;;;;;;;20.83;78.68;98273.06;5011528;28;20603;-57
2023/06/20 04:41:25;;;;;;;4.70;4.30;;;;;;;20.82;77.25;98236.41;5011625;28;20186;-57
2023/06/20 04:43:50;;;;;;;5.95;4.60;;;;;;;21.09;78.58;98263.06;5011572;28;20198;-57
2023/06/20 04:46:17;;;;;;;4.50;4.15;;;;;;;21.15;76.66;98259.75;5011613;28;20625;-57
2023/06/20 04:48:44;;;;;;;5.10;4.60;;;;;;;21.14;76.99;98249.38;5011398;28;20199;-57
2023/06/20 04:51:10;;;;;;;4.32;3.92;;;;;;;21.27;76.86;98265.44;5041767;28;20189;-57
2023/06/20 04:53:36;;;;;;;7.45;4.47;;;;;;;21.07;77.03;98238.75;5083718;28;20188;-57
2023/06/20 04:56:01;;;;;;;5.88;4.38;;;;;;;21.07;76.71;98249.28;5093668;28;20176;-57
2023/06/20 04:58:28;;;;;;;5.50;4.35;;;;;;;21.18;74.99;98250.69;5070846;28;20187;-57
2023/06/20 05:00:59;;;;;;;4.85;4.10;;;;;;;21.33;74.62;98264.75;5070908;28;20181;-57
2023/06/20 05:03:25;;;;;;;4.47;4.18;;;;;;;21.39;75.00;98253.50;5070759;28;20683;-57
2023/06/20 05:05:51;;;;;;;4.55;4.15;;;;;;;21.55;74.66;98248.09;5070759;28;20184;-57
2023/06/20 05:08:17;;;;;;;4.68;4.20;;;;;;;21.72;74.34;98253.09;5070723;28;20200;-58
2023/06/20 05:10:42;;;;;;;5.05;4.05;;;;;;;22.01;74.73;98273.38;5070732;28;20647;-57
2023/06/20 05:13:08;;;;;;;5.53;4.45;;;;;;;22.09;74.72;98278.59;5070672;28;20250;-57
2023/06/20 05:15:33;;;;;;;4.97;4.47;;;;;;;22.26;74.77;98285.34;5070698;28;20631;-58
2023/06/20 05:17:58;;;;;;;10.80;6.57;;;;;;;22.29;77.68;98262.06;5070597;28;20185;-58
2023/06/20 05:20:24;;;;;;;9.40;7.35;;;;;;;22.55;79.18;98288.00;5070576;28;20175;-58
2023/06/20 05:22:49;;;;;;;13.27;7.45;;;;;;;22.54;78.54;98273.16;5070579;28;20177;-58
2023/06/20 05:25:15;;;;;;;10.75;8.20;;;;;;;22.86;78.09;98301.78;5070379;28;20208;-57
2023/06/20 05:27:40;;;;;;;12.90;6.80;;;;;;;;;;5070459;28;20195;-57
2023/06/20 05:30:06;;;;;;;10.57;7.57;;;;;;;22.99;77.56;98300.13;5087617;28;20208;-58
2023/06/20 05:32:32;;;;;;;14.40;7.97;;;;;;;23.09;76.86;98294.56;5093263;28;20187;-57
2023/06/20 05:34:58;;;;;;;8.57;7.47;;;;;;;23.22;77.04;98305.28;5092666;28;20180;-58
2023/06/20 05:37:23;;;;;;;13.07;7.97;;;;;;;23.33;76.57;98307.44;5070102;28;20253;-58
2023/06/20 05:39:48;;;;;;;15.80;7.82;;;;;;;23.32;75.92;98296.03;5070252;28;20192;-58
2023/06/20 05:42:14;;;;;;;12.85;7.35;;;;;;;23.38;74.70;98289.22;5070207;28;20192;-58
2023/06/20 05:44:39;;;;;;;11.10;7.40;;;;;;;23.48;74.98;98289.72;5070109;28;20199;-58
2023/06/20 05:47:05;;;;;;;15.60;8.05;;;;;;;23.54;74.50;98283.69;5070168;28;20195;-58
2023/06/20 05:49:31;;;;;;;9.75;6.72;;;;;;;23.65;72.87;98291.09;5070178;28;20674;-58
2023/06/20 05:51:57;;;;;;;9.93;6.68;;;;;;;23.79;70.45;98291.03;5070088;28;20281;-58
2023/06/20 05:54:26;;;;;;;6.93;6.22;;;;;;;23.79;69.24;98262.75;5069967;28;20184;-58
2023/06/20 05:56:52;;;;;;;7.30;6.43;;;;;;;23.91;67.72;98278.97;5069998;28;20319;-58
2023/06/20 05:59:18;;;;;;;8.95;6.00;;;;;;;24.02;67.55;98267.03;5069998;28;20604;-58
2023/06/20 06:01:44;;;;;;;9.27;6.13;;;;;;;24.27;67.34;98293.63;5069988;28;20184;-58
2023/06/20 06:04:10;;;;;;;10.75;5.68;;;;;;;24.25;66.75;98268.38;5070016;28;20216;-56
2023/06/20 06:06:36;;;;;;;8.85;5.65;;;;;;;24.41;65.39;98276.03;5069796;28;20249;-57
2023/06/20 06:09:03;;;;;;;12.02;6.57;;;;;;;24.56;64.87;98285.47;5087152;28;20196;-58
2023/06/20 06:11:28;;;;;;;10.13;6.05;;;;;;;24.67;64.68;98289.44;5092448;28;20186;-58
2023/06/20 06:13:53;;;;;;;8.00;6.20;;;;;;;24.78;63.41;98287.03;5092104;28;20168;-58
2023/06/20 06:16:19;;;;;;;8.85;5.72;;;;;;;24.86;63.30;98276.28;5091705;28;20176;-58
2023/06/20 06:18:44;;;;;;;10.43;6.05;;;;;;;24.90;63.06;98269.56;5092033;28;20176;-56
2023/06/20 06:21:10;;;;;;;9.52;5.40;;;;;;;24.87;62.40;98263.84;5092192;28;20176;-56
2023/06/20 06:23:35;;;;;;;7.78;6.05;;;;;;;24.97;62.39;98259.81;5092121;28;20225;-56
2023/06/20 06:26:02;;;;;;;6.55;5.65;;;;;;;25.20;61.82;98278.03;5092165;28;20168;-56
2023/06/20 06:28:30;;;;;;;8.80;5.57;;;;;;;25.20;62.04;98276.19;5092075;28;20195;-56
2023/06/20 06:30:59;;;;;;;7.10;5.93;;;;;;;25.25;61.77;98268.47;5092195;28;20565;-56
2023/06/20 06:33:25;;;;;;;6.22;4.38;;;;;;;25.33;62.32;98281.56;5069539;28;20275;-56
2023/06/20 06:35:51;;;;;;;4.93;4.43;;;;;;;25.33;62.63;98265.66;5069590;28;20193;-57
2023/06/20 06:38:17;;;;;;;5.72;5.20;;;;;;;25.38;61.39;98251.81;5069483;28;20204;-57
2023/06/20 06:40:45;;;;;;;8.35;4.93;;;;;;;25.52;61.60;98256.91;5069547;28;20774;-57
2023/06/20 06:43:10;;;;;;;5.80;4.68;;;;;;;25.46;61.92;98264.84;5069476;28;20254;-57
2023/06/20 06:45:37;;;;;;;4.80;4.07;;;;;;;25.42;61.67;98256.50;5069322;28;20257;-57
2023/06/20 06:48:02;;;;;;;4.40;4.00;;;;;;;25.31;61.39;98262.38;5069381;28;20789;-57
2023/06/20 06:50:28;;;;;;;5.00;4.53;;;;;;;25.24;61.59;98243.00;5069341;28;20259;-57
2023/06/20 06:52:53;;;;;;;6.53;4.78;;;;;;;25.50;62.26;98271.38;5069468;28;20208;-58
2023/06/20 06:55:19;;;;;;;7.18;5.95;;;;;;;25.55;62.36;98259.16;5069458;28;20182;-57
2023/06/20 06:57:44;;;;;;;7.60;6.00;;;;;;;25.68;62.74;98251.22;5069457;28;20191;-57
2023/06/20 07:00:12;;;;;;;8.63;5.65;;;;;;;25.78;62.83;98254.25;5069633;28;20656;-57
2023/06/20 07:02:38;;;;;;;6.35;5.13;;;;;;;25.76;62.09;98245.72;5069223;28;20658;-57
2023/06/20 07:05:05;;;;;;;7.30;5.13;;;;;;;25.91;62.51;98256.13;5069155;28;20201;-57
2023/06/20 07:07:30;;;;;;;5.82;5.32;;;;;;;26.04;61.60;98262.25;5069334;28;20185;-58
2023/06/20 07:09:56;;;;;;;10.30;7.43;;;;;;;26.11;61.47;98252.44;5031915;28;20204;-59
2023/06/20 07:12:21;;;;;;;8.52;5.78;;;;;;;26.17;60.79;98248.13;5049275;28;20223;-57
2023/06/20 07:14:50;;;;;;;7.78;4.72;;;;;;;26.29;56.82;98242.00;5049231;28;20189;-57
2023/06/20 07:17:15;;;;;;;7.13;5.00;;;;;;;26.39;53.93;98236.25;5049215;28;20193;-58
2023/06/20 07:19:43;;;;;;;5.72;4.10;;;;;;;26.47;50.48;98220.91;5049178;28;20178;-58
2023/06/20 07:22:08;;;;;;;5.45;4.43;;;;;;;26.57;51.64;98229.28;5049154;28;20231;-58
2023/06/20 07:24:34;;;;;;;4.65;4.25;;;;;;;26.63;50.35;98231.09;5049082;28;20213;-58
2023/06/20 07:26:59;;;;;;;5.65;4.20;;;;;;;26.73;48.13;98242.09;5049173;28;20658;-58
2023/06/20 07:29:24;;;;;;;6.13;4.25;;;;;;;26.70;49.02;98239.03;5052741;28;20281;-58
2023/06/20 07:31:50;;;;;;;7.55;5.30;;;;;;;26.82;49.13;98247.97;5052590;28;20620;-57
2023/06/20 07:34:15;;;;;;;5.65;4.40;;;;;;;26.87;49.75;98234.88;5052508;28;20192;-58
2023/06/20 07:36:41;;;;;;;4.95;4.25;;;;;;;26.96;48.72;98247.69;5052529;28;20745;-58
2023/06/20 07:39:06;;;;;;;4.72;4.32;;;;;;;27.00;48.56;98245.44;5052485;28;20196;-57
2023/06/20 07:41:32;;;;;;;5.30;4.18;;;;;;;27.08;49.03;98251.31;5067684;28;20238;-57
2023/06/20 07:43:57;;;;;;;5.10;4.63;;;;;;;27.08;46.63;98256.63;5032135;28;20202;-57
2023/06/20 07:46:22;;;;;;;4.53;4.13;;;;;;;26.98;45.90;98242.97;5032405;28;20225;-57
2023/06/20 07:48:50;;;;;;;5.03;4.20;;;;;;;27.11;45.58;98261.50;5032343;28;20739;-58
2023/06/20 07:51:15;;;;;;;4.65;4.15;;;;;;;27.12;46.32;98265.78;5032344;28;20188;-57
2023/06/20 07:53:41;;;;;;;5.95;5.30;;;;;;;27.15;46.48;98262.72;5032240;28;20204;-57
2023/06/20 07:56:07;;;;;;;4.50;4.03;;;;;;;27.20;44.67;98272.72;4973308;28;20255;-57
2023/06/20 07:58:32;;;;;;;4.40;4.00;;;;;;;27.06;43.90;98261.31;4973372;28;20184;-57
2023/06/20 08:00:58;;;;;;;4.05;3.65;;;;;;;27.16;44.20;98272.34;4973327;28;20188;-58
2023/06/20 08:03:24;;;;;;;3.90;3.60;;;;;;;27.09;45.18;98255.59;4973157;28;20192;-58
2023/06/20 08:05:51;;;;;;;4.53;4.13;;;;;;;27.27;46.20;98273.50;4973228;28;20207;-58
2023/06/20 08:08:16;;;;;;;5.60;4.32;;;;;;;27.26;45.51;98286.00;4973556;28;20660;-58
2023/06/20 08:10:42;;;;;;;4.20;3.72;;;;;;;27.30;44.85;98281.84;4973182;28;20184;-58
2023/06/20 08:13:07;;;;;;;4.22;3.83;;;;;;;27.40;45.62;98284.88;4973169;28;20176;-58
2023/06/20 08:15:33;;;;;;;4.20;3.80;;;;;;;27.49;45.72;98290.75;5017206;28;20236;-58
2023/06/20 08:17:58;;;;;;;4.60;4.22;;;;;;;27.58;46.22;98292.94;5031970;28;20420;-58
2023/06/20 08:20:23;;;;;;;6.47;3.78;;;;;;;27.65;45.96;98285.72;5032111;28;20184;-58
2023/06/20 08:22:49;;;;;;;3.95;3.65;;;;;;;27.69;45.27;98289.56;5031784;28;20197;-58
2023/06/20 08:25:14;;;;;;;4.65;4.10;;;;;;;27.77;46.11;98289.38;5031730;28;20248;-58
2023/06/20 08:27:40;;;;;;;4.90;3.80;;;;;;;27.86;44.41;98292.56;5077634;28;20187;-58
2023/06/20 08:30:06;;;;;;;4.75;4.00;;;;;;;27.89;44.83;98287.63;5094185;28;20267;-59
2023/06/20 08:32:31;;;;;;;3.95;3.63;;;;;;;27.83;44.52;98287.66;5093767;28;20622;-58
2023/06/20 08:34:57;;;;;;;5.43;4.10;;;;;;;27.82;45.19;98296.69;5094046;28;20191;-58
2023/06/20 08:37:22;;;;;;;4.47;3.83;;;;;;;27.73;45.16;98263.38;5094018;28;20275;-58
2023/06/20 08:39:48;;;;;;;5.53;4.32;;;;;;;27.81;44.08;98276.44;5050883;28;20181;-58
2023/06/20 08:42:13;;;;;;;4.15;3.80;;;;;;;27.80;44.60;98269.47;5051353;28;20647;-58
2023/06/20 08:44:39;;;;;;;7.07;4.22;;;;;;;27.71;44.91;98260.13;5051063;28;20212;-58
2023/06/20 08:47:05;;;;;;;4.18;3.88;;;;;;;27.85;44.79;98293.56;5051244;28;20177;-58
2023/06/20 08:49:30;;;;;;;4.03;3.72;;;;;;;27.78;44.19;98288.31;5051134;28;20723;-57
2023/06/20 08:52:01;;;;;;;5.30;4.47;;;;;;;27.69;43.89;98259.53;5051243;28;20308;-57
2023/06/20 08:54:31;;;;;;;4.63;4.22;;;;;;;27.84;44.14;98281.31;5051112;28;20299;-57
2023/06/20 08:56:56;;;;;;;4.00;3.70;;;;;;;27.91;44.60;98284.72;5051112;28;20215;-57
2023/06/20 08:59:22;;;;;;;3.85;3.55;;;;;;;27.91;43.06;98266.09;5050976;28;20201;-57
2023/06/20 09:01:48;;;;;;;6.10;3.45;;;;;;;28.01;42.93;98269.09;5051054;28;20220;-57
2023/06/20 09:04:13;;;;;;;3.92;3.60;;;;;;;28.21;40.21;98283.84;5050797;28;20225;-57
2023/06/20 09:06:39;;;;;;;3.67;3.38;;;;;;;28.32;41.14;98284.97;4991607;28;20219;-58
2023/06/20 09:09:05;;;;;;;4.75;3.70;;;;;;;28.37;40.57;98264.69;4952691;28;20279;-56
2023/06/20 09:11:36;;;;;;;4.10;3.58;;;;;;;28.57;40.04;98272.47;4968392;28;20224;-56
2023/06/20 09:14:02;;;;;;;9.50;3.88;;;;;;;28.55;40.84;98246.03;4972043;28;20191;-57
2023/06/20 09:16:31;;;;;;;4.18;3.88;;;;;;;28.75;39.87;98275.91;4971998;28;20223;-57
2023/06/20 09:19:00;;;;;;;6.97;4.07;;;;;;;28.74;40.49;98266.28;4952619;29;20180;-57
2023/06/20 09:21:26;;;;;;;6.25;3.88;;;;;;;28.85;40.04;98284.19;4952784;29;20196;-57
2023/06/20 09:24:03;;;;;;;12.20;10.15;;;;;;;28.72;40.04;98257.72;4952560;29;20223;-57
2023/06/20 09:26:30;;;;;;;4.22;3.60;;;;;;;28.80;38.90;98257.41;4952562;28;20192;-57
2023/06/20 09:29:12;;;;;;;3.70;3.40;;;;;;;29.04;39.14;98282.38;4952478;29;20181;-58
2023/06/20 09:31:49;;;;;;;4.18;3.30;;;;;;;29.13;38.44;98284.50;4952254;29;20347;-58
2023/06/20 09:34:19;;;;;;;4.25;3.53;;;;;;;28.99;37.08;98263.56;4952422;29;20188;-58
2023/06/20 09:36:48;;;;;;;3.95;3.65;;;;;;;29.20;38.03;98279.09;4952500;29;20204;-58
2023/06/20 09:39:20;;;;;;;4.43;4.03;;;;;;;29.28;37.83;98282.25;4971458;28;20200;-57
2023/06/20 09:41:50;;;;;;;3.97;3.67;;;;;;;29.18;38.55;98260.66;4971597;28;20192;-57
2023/06/20 09:44:17;;;;;;;4.40;3.42;;;;;;;29.25;37.57;98266.69;4993681;28;20209;-57
2023/06/20 09:46:43;;;;;;;3.80;3.50;;;;;;;29.34;36.10;98289.34;5021944;28;20285;-58
2023/06/20 09:49:12;;;;;;;3.75;3.40;;;;;;;29.36;37.07;98295.25;5030162;28;20300;-57
2023/06/20 09:51:49;;;;;;;3.67;3.40;;;;;;;29.21;37.10;98254.84;5029507;28;20215;-57
2023/06/20 09:54:28;;;;;;;3.88;3.50;;;;;;;29.43;37.07;98277.28;5030258;28;20206;-57
2023/06/20 09:57:04;;;;;;;3.90;3.53;;;;;;;29.43;37.36;98269.28;5030126;28;20308;-57
2023/06/20 09:59:31;;;;;;;5.07;3.80;;;;;;;29.61;37.38;98287.94;5030172;28;20240;-57
2023/06/20 10:01:59;;;;;;;3.33;3.03;;;;;;;29.46;37.28;98255.53;5029920;28;20239;-57
2023/06/20 10:04:26;;;;;;;3.85;3.55;;;;;;;29.67;37.31;98270.22;5029935;28;20320;-56
2023/06/20 10:06:55;;;;;;;3.33;3.13;;;;;;;29.83;37.69;98277.53;5029830;28;20234;-56
2023/06/20 10:09:21;;;;;;;4.10;3.30;;;;;;;29.99;35.42;98269.66;5035306;28;20659;-57
2023/06/20 10:11:47;;;;;;;4.10;3.80;;;;;;;30.19;36.29;98275.50;5069775;28;20206;-57
2023/06/20 10:14:14;;;;;;;3.28;3.08;;;;;;;30.32;35.57;98269.13;5069796;28;20273;-58
2023/06/20 10:16:39;;;;;;;3.97;3.40;;;;;;;30.47;35.80;98272.09;5069812;28;20192;-58
2023/06/20 10:19:18;;;;;;;4.28;3.97;;;;;;;30.61;35.55;98271.63;5069801;28;20168;-58
2023/06/20 10:21:57;;;;;;;4.00;3.70;;;;;;;30.77;36.27;98272.81;5069768;28;20184;-57
2023/06/20 10:24:25;;;;;;;4.13;3.83;;;;;;;30.81;36.09;98269.41;5009834;28;20202;-58
2023/06/20 10:26:59;;;;;;;4.30;3.53;;;;;;;30.76;36.27;98266.63;5009915;28;20210;-58
2023/06/20 10:29:25;;;;;;;4.30;3.90;;;;;;;30.73;36.39;98269.75;5010096;28;20669;-58
2023/06/20 10:31:53;;;;;;;3.20;3.00;;;;;;;30.74;36.42;98254.56;5009924;28;20216;-58
2023/06/20 10:34:41;;;;;;;3.58;3.28;;;;;;;30.85;36.66;98259.84;5010044;28;20194;-58
2023/06/20 10:37:16;;;;;;;4.88;3.53;;;;;;;30.95;35.53;98264.63;4993828;28;20183;-58
2023/06/20 10:39:52;;;;;;;5.05;3.20;;;;;;;30.93;34.55;98242.63;5009941;28;20194;-57
2023/06/20 10:42:36;;;;;;;3.47;3.17;;;;;;;31.03;34.42;98237.50;5009993;28;20198;-57
2023/06/20 10:45:25;;;;;;;3.60;3.40;;;;;;;31.23;35.04;98252.06;5009959;28;20697;-58
2023/06/20 10:47:52;;;;;;;4.32;3.45;;;;;;;31.41;35.35;98259.88;5009924;28;20689;-57
2023/06/20 10:50:19;;;;;;;3.58;3.28;;;;;;;31.63;34.53;98262.66;5009746;28;20190;-57
2023/06/20 10:52:45;;;;;;;3.35;3.15;;;;;;;31.45;34.74;98266.41;5009878;28;20191;-57
2023/06/20 10:55:26;;;;;;;3.55;3.10;;;;;;;31.55;34.95;98255.88;5026378;28;20185;-57
2023/06/20 10:57:52;;;;;;;3.83;3.28;;;;;;;31.57;34.33;98245.72;5049473;28;20216;-57
2023/06/20 11:00:19;;;;;;;3.53;3.22;;;;;;;31.34;34.28;98226.31;5049383;28;20358;-57
2023/06/20 11:02:48;;;;;;;4.28;3.88;;;;;;;31.51;34.77;98243.19;5052144;28;20204;-58
2023/06/20 11:05:14;;;;;;;4.47;3.70;;;;;;;31.34;34.85;98229.81;5053205;28;20201;-57
2023/06/20 11:07:53;;;;;;;4.95;3.63;;;;;;;31.25;34.91;98241.16;5066612;28;20188;-57
2023/06/20 11:10:20;;;;;;;5.05;4.22;;;;;;;31.12;35.79;98236.88;5095750;28;20176;-57
2023/06/20 11:12:46;;;;;;;7.70;6.90;;;;;;;30.97;35.11;98239.28;5095712;28;20187;-57
2023/06/20 11:15:32;;;;;;;7.43;6.53;;;;;;;30.80;36.37;98238.41;5095653;28;20557;-57
2023/06/20 11:18:00;;;;;;;7.63;6.88;;;;;;;30.53;36.81;98218.56;5095647;28;20186;-57
2023/06/20 11:20:27;;;;;;;8.80;6.13;;;;;;;30.34;37.62;98217.09;5095607;28;20694;-57
2023/06/20 11:22:55;;;;;;;6.80;6.20;;;;;;;30.39;38.18;98211.06;5095502;28;20179;-57
2023/06/20 11:25:47;;;;;;;7.85;6.18;;;;;;;30.54;38.96;98230.88;5095447;28;20196;-58
2023/06/20 11:28:16;;;;;;;5.70;5.20;;;;;;;30.76;37.64;98223.88;5052664;28;20193;-58
2023/06/20 11:30:44;;;;;;;6.38;5.15;;;;;;;31.04;38.38;98207.84;5052551;28;20284;-58
2023/06/20 11:33:14;;;;;;;4.00;3.50;;;;;;;31.41;36.63;98227.00;5012937;28;20194;-57
2023/06/20 11:35:46;;;;;;;4.65;3.75;;;;;;;31.80;35.85;98239.44;5012911;28;20194;-57